Etusivu
METAR-TAF:

METAR-TAF

Lentoasemat :

Nadin kansainvälinen lentoasema

Nadi, Fidži

Leveyspiiri: 17-45S, Pituuspiiri: 177-27E, korkeus merenpinnasta: 13 m

Tämänhetkinen sää

Tämä raportti tehtiin 40 minuuttia sitten, kello 23.00 UTC
Tuuli 9 kn idästä/kaakosta, vaihdellen idän ja etelän/kaakon välillä
Lämpötila 30°C
Kosteus 62%
Ilmanpaine 1014 hPa
Näkyvyys 10 km tai enemmän
Muutamia pilviä 2700 ft:n korkeudessa
Hajanaisia pilviä 4800 ft:n korkeudessa
Hajonneita pilviä 11000 ft:n korkeudessa

METAR: NFFN 252300Z 11009KT 080V150 9999 FEW027 SCT048 BKN110 30/22 Q1014 NOSIG

Aika: 11:40 (23:40 UTC)

Sääennuste

Tämä raportti tehtiin 26 minuuttia sitten, kello 23.14 UTC
Ennuste voimassa 26. päivästä klo 00 UTC - 26. päivään klo 24 UTC
Tuuli 10 kn kaakosta
Näkyvyys 10 km tai enemmän
Muutamia pilviä 3000 ft:n korkeudessa
Hajanaisia pilviä 4800 ft:n korkeudessa

TAF: NFFN 252314Z 2600/2624 13010KT 9999 FEW030 SCT048

Säähavainnot ja -ennusteet yli 4000 lentoasemalta (METAR- ja TAF-raportit).

Käytössä olevat sääasemat on merkitty karttaan keltaisilla ja punaisilla pisteillä.

Aseta hiiri pisteen päälle nähdäksesi sääaseman nimen.

Klikkaa sitten nähdäksesi säähavainnot ja -ennusteet.

Kartan vaihtaminen: klikkaa mustalla rastilla varustettuja vihreitä pisteitä, niin voit zoomata sisään; viivalla varustettua vihreää pistettä, niin voit zoomata ulos tai vihreitä nuolia, niin pääset viereisille kartoille.


METAR-TAF: